createdAt,value
2023-05-08T00:01:02.669Z,12.03
2023-05-08T00:03:29.718Z,12.30
2023-05-08T00:05:56.809Z,12.53
2023-05-08T00:08:23.776Z,12.53
2023-05-08T00:10:50.664Z,12.60
2023-05-08T00:13:17.712Z,12.27
2023-05-08T00:15:44.590Z,12.67
2023-05-08T00:18:11.865Z,11.90
2023-05-08T00:20:38.798Z,12.40
2023-05-08T00:23:05.635Z,12.10
2023-05-08T00:25:32.499Z,12.30
2023-05-08T00:28:00.137Z,12.33
2023-05-08T00:30:27.296Z,12.77
2023-05-08T00:32:54.417Z,12.47
2023-05-08T00:35:21.916Z,12.30
2023-05-08T00:37:48.773Z,12.00
2023-05-08T00:40:16.204Z,11.70
2023-05-08T00:42:43.303Z,12.10
2023-05-08T00:45:10.547Z,12.33
2023-05-08T00:47:38.243Z,12.40
2023-05-08T00:50:05.591Z,11.93
2023-05-08T00:52:33.437Z,11.90
2023-05-08T00:55:02.319Z,12.07
2023-05-08T00:57:32.473Z,12.13
2023-05-08T01:00:01.768Z,12.30
2023-05-08T01:02:31.648Z,12.27
2023-05-08T01:04:59.133Z,11.90
2023-05-08T01:07:26.163Z,12.30
2023-05-08T01:09:53.244Z,12.23
2023-05-08T01:12:43.519Z,12.67
2023-05-08T01:15:24.012Z,12.20
2023-05-08T01:17:57.994Z,12.03
2023-05-08T01:20:27.826Z,11.93
2023-05-08T01:23:06.922Z,12.63
2023-05-08T01:25:55.096Z,12.40
2023-05-08T01:29:06.455Z,12.33
2023-05-08T01:31:44.950Z,12.13
2023-05-08T01:34:20.105Z,12.00
2023-05-08T01:37:00.804Z,12.03
2023-05-08T01:39:30.520Z,11.80
2023-05-08T01:41:58.917Z,11.67
2023-05-08T01:44:32.289Z,11.67
2023-05-08T01:47:03.824Z,11.60
2023-05-08T01:49:38.776Z,11.53
2023-05-08T01:52:35.514Z,12.20
2023-05-08T01:55:06.057Z,12.07
2023-05-08T01:57:36.068Z,11.53
2023-05-08T02:00:04.862Z,11.70
2023-05-08T02:02:38.302Z,12.03
2023-05-08T02:05:07.544Z,11.33
2023-05-08T02:07:38.200Z,11.67
2023-05-08T02:10:06.521Z,11.47
2023-05-08T02:12:34.351Z,11.90
2023-05-08T02:15:03.276Z,11.80
2023-05-08T02:17:31.456Z,11.07
2023-05-08T02:20:03.490Z,11.93
2023-05-08T02:22:32.861Z,11.73
2023-05-08T02:25:00.313Z,11.73
2023-05-08T02:27:29.431Z,12.00
2023-05-08T02:29:57.417Z,11.80
2023-05-08T02:32:27.092Z,11.47
2023-05-08T02:35:03.060Z,11.47
2023-05-08T02:37:32.598Z,11.53
2023-05-08T02:39:59.806Z,11.13
2023-05-08T02:42:26.962Z,11.70
2023-05-08T02:44:53.970Z,11.60
2023-05-08T02:48:00.254Z,11.70
2023-05-08T02:50:37.648Z,11.47
2023-05-08T02:53:09.639Z,11.63
2023-05-08T02:56:02.601Z,11.53
2023-05-08T02:58:43.842Z,11.63
2023-05-08T03:01:27.601Z,11.13
2023-05-08T03:04:07.840Z,11.70
2023-05-08T03:06:42.974Z,11.47
2023-05-08T03:09:20.773Z,11.20
2023-05-08T03:11:50.197Z,11.80
2023-05-08T03:14:22.750Z,11.20
2023-05-08T03:16:52.381Z,11.07
2023-05-08T03:19:39.374Z,11.47
2023-05-08T03:22:08.018Z,11.50
2023-05-08T03:24:40.093Z,11.70
2023-05-08T03:27:08.658Z,11.33
2023-05-08T03:29:38.480Z,11.53
2023-05-08T03:32:07.056Z,11.70
2023-05-08T03:34:36.209Z,11.93
2023-05-08T03:37:03.670Z,11.50
2023-05-08T03:39:30.587Z,11.17
2023-05-08T03:41:58.095Z,11.50
2023-05-08T03:44:26.133Z,11.30
2023-05-08T03:46:56.046Z,11.40
2023-05-08T03:49:25.608Z,11.50
2023-05-08T03:51:55.641Z,11.63
2023-05-08T03:54:25.504Z,12.27
2023-05-08T03:56:54.489Z,12.10
2023-05-08T03:59:33.243Z,12.17
2023-05-08T04:02:17.514Z,12.43
2023-05-08T04:04:50.161Z,12.30
2023-05-08T04:07:29.564Z,12.30
2023-05-08T04:10:28.978Z,12.17
2023-05-08T04:13:05.133Z,12.10
2023-05-08T04:15:39.388Z,11.63
2023-05-08T04:18:10.137Z,12.10
2023-05-08T04:20:41.650Z,11.70
2023-05-08T04:23:09.955Z,11.83
2023-05-08T04:25:39.009Z,11.87
2023-05-08T04:28:06.626Z,11.70
2023-05-08T04:30:35.556Z,12.00
2023-05-08T04:33:05.080Z,11.83
2023-05-08T04:35:33.980Z,12.03
2023-05-08T04:38:02.054Z,12.00
2023-05-08T04:40:28.973Z,12.07
2023-05-08T04:42:56.797Z,12.50
2023-05-08T04:45:24.192Z,12.30
2023-05-08T04:47:51.264Z,12.60
2023-05-08T04:50:18.138Z,12.80
2023-05-08T04:52:45.072Z,12.63
2023-05-08T04:55:12.128Z,12.60
2023-05-08T04:57:39.585Z,12.87
2023-05-08T05:00:07.173Z,13.07
2023-05-08T05:02:38.321Z,13.03
2023-05-08T05:05:06.459Z,13.70
2023-05-08T05:07:34.004Z,13.37
2023-05-08T05:10:01.271Z,13.67
2023-05-08T05:12:28.778Z,12.73
2023-05-08T05:14:55.885Z,13.10
2023-05-08T05:17:23.774Z,12.87
2023-05-08T05:19:53.334Z,13.23
2023-05-08T05:22:20.545Z,12.90
2023-05-08T05:24:47.523Z,12.57
2023-05-08T05:27:14.454Z,13.10
2023-05-08T05:29:41.489Z,12.63
2023-05-08T05:32:10.233Z,13.00
2023-05-08T05:34:37.704Z,13.57
2023-05-08T05:37:04.983Z,13.00
2023-05-08T05:39:32.444Z,13.00
2023-05-08T05:41:59.442Z,13.10
2023-05-08T05:44:26.325Z,13.20
2023-05-08T05:46:54.703Z,13.33
2023-05-08T05:49:21.682Z,13.20
2023-05-08T05:51:48.588Z,13.50
2023-05-08T05:54:16.664Z,13.20
2023-05-08T05:56:44.425Z,13.20
2023-05-08T05:59:11.579Z,13.00
2023-05-08T06:01:39.410Z,12.87
2023-05-08T06:04:06.693Z,12.87
2023-05-08T06:06:33.670Z,12.93
2023-05-08T06:09:00.748Z,13.37
2023-05-08T06:11:27.634Z,12.70
2023-05-08T06:13:54.806Z,13.33
2023-05-08T06:16:23.207Z,13.93
2023-05-08T06:18:50.629Z,13.57
2023-05-08T06:21:17.493Z,13.20
2023-05-08T06:23:44.539Z,13.70
2023-05-08T06:26:11.409Z,14.07
2023-05-08T06:28:38.502Z,13.63
2023-05-08T06:31:05.391Z,13.90
2023-05-08T06:33:32.327Z,13.97
2023-05-08T06:35:59.472Z,14.03
2023-05-08T06:38:26.667Z,14.00
2023-05-08T06:40:54.098Z,14.40
2023-05-08T06:43:21.737Z,13.73
2023-05-08T06:45:48.643Z,13.93
2023-05-08T06:48:15.509Z,14.43
2023-05-08T06:50:43.323Z,13.70
2023-05-08T06:53:10.303Z,13.97
2023-05-08T06:55:37.105Z,13.87
2023-05-08T06:58:04.205Z,13.83
2023-05-08T07:00:31.175Z,13.53
2023-05-08T07:02:58.084Z,13.57
2023-05-08T07:05:24.993Z,13.80
2023-05-08T07:07:54.188Z,13.17
2023-05-08T07:10:22.977Z,14.13
2023-05-08T07:12:50.111Z,14.03
2023-05-08T07:15:25.349Z,13.63
2023-05-08T07:17:53.514Z,14.00
2023-05-08T07:20:21.595Z,14.07
2023-05-08T07:22:48.923Z,13.43
2023-05-08T07:25:16.305Z,13.27
2023-05-08T07:27:43.587Z,13.17
2023-05-08T07:30:10.812Z,13.60
2023-05-08T07:32:39.401Z,13.07
2023-05-08T07:35:11.023Z,13.53
2023-05-08T07:37:40.817Z,13.77
2023-05-08T07:40:07.993Z,13.57
2023-05-08T07:42:45.195Z,13.60
2023-05-08T07:45:13.686Z,13.57
2023-05-08T07:47:52.529Z,12.97
2023-05-08T07:50:19.598Z,13.50
2023-05-08T07:52:49.210Z,13.40
2023-05-08T07:55:18.145Z,13.57
2023-05-08T07:57:45.126Z,13.80
2023-05-08T08:00:14.248Z,13.73
2023-05-08T08:02:42.307Z,13.50
2023-05-08T08:05:09.655Z,13.50
2023-05-08T08:07:36.504Z,13.13
2023-05-08T08:10:04.679Z,13.17
2023-05-08T08:12:32.091Z,13.83
2023-05-08T08:14:59.113Z,13.93
2023-05-08T08:17:28.437Z,13.37
2023-05-08T08:19:56.603Z,13.60
2023-05-08T08:22:24.871Z,13.90
2023-05-08T08:24:54.905Z,13.47
2023-05-08T08:27:22.736Z,13.43
2023-05-08T08:29:52.611Z,13.67
2023-05-08T08:32:25.687Z,13.93
2023-05-08T08:34:52.567Z,13.67
2023-05-08T08:37:19.505Z,13.80
2023-05-08T08:39:46.346Z,14.20
2023-05-08T08:42:14.044Z,13.63
2023-05-08T08:44:41.766Z,13.90
2023-05-08T08:47:12.006Z,13.67
2023-05-08T08:49:47.355Z,13.67
2023-05-08T08:52:52.058Z,14.30
2023-05-08T08:55:20.759Z,14.47
2023-05-08T08:58:01.576Z,14.37
2023-05-08T09:00:34.155Z,14.47
2023-05-08T09:03:01.504Z,14.40
2023-05-08T09:05:28.607Z,14.50
2023-05-08T09:07:56.120Z,14.33
2023-05-08T09:10:24.545Z,14.20
2023-05-08T09:12:52.070Z,14.50
2023-05-08T09:15:18.975Z,14.13
2023-05-08T09:17:45.986Z,13.70
2023-05-08T09:20:14.863Z,13.93
2023-05-08T09:22:43.567Z,13.90
2023-05-08T09:25:11.031Z,14.13
2023-05-08T09:27:38.490Z,14.33
2023-05-08T09:30:06.581Z,13.83
2023-05-08T09:32:35.719Z,13.27
2023-05-08T09:35:03.564Z,14.20
2023-05-08T09:37:30.764Z,13.97
2023-05-08T09:40:13.512Z,13.90
2023-05-08T09:42:40.792Z,14.10
2023-05-08T09:45:08.195Z,14.10
2023-05-08T09:47:37.463Z,13.67
2023-05-08T09:50:09.868Z,14.03
2023-05-08T09:52:38.358Z,14.67
2023-05-08T09:55:10.499Z,13.87
2023-05-08T09:57:39.695Z,14.00
2023-05-08T10:00:13.926Z,14.03
2023-05-08T10:02:42.810Z,13.97
2023-05-08T10:05:34.845Z,14.10
2023-05-08T10:08:22.666Z,14.47
2023-05-08T10:10:50.165Z,14.53
2023-05-08T10:13:17.020Z,14.03
2023-05-08T10:15:45.580Z,14.00
2023-05-08T10:18:13.422Z,13.93
2023-05-08T10:20:42.490Z,13.70
2023-05-08T10:23:14.809Z,14.00
2023-05-08T10:25:46.670Z,13.90
2023-05-08T10:28:32.804Z,13.77
2023-05-08T10:31:01.537Z,13.90
2023-05-08T10:33:31.814Z,13.60
2023-05-08T10:35:59.940Z,13.60
2023-05-08T10:38:27.603Z,13.80
2023-05-08T10:40:58.162Z,13.80
2023-05-08T10:43:26.408Z,13.60
2023-05-08T10:45:55.577Z,13.27
2023-05-08T10:48:37.288Z,13.37
2023-05-08T10:51:13.859Z,14.03
2023-05-08T10:53:44.477Z,14.00
2023-05-08T10:56:11.540Z,13.63
2023-05-08T10:58:41.660Z,14.03
2023-05-08T11:01:08.719Z,14.10
2023-05-08T11:03:47.163Z,13.80
2023-05-08T11:06:15.147Z,14.00
2023-05-08T11:08:54.681Z,14.23
2023-05-08T11:11:28.481Z,13.57
2023-05-08T11:14:10.448Z,14.17
2023-05-08T11:16:57.107Z,13.77
2023-05-08T11:19:25.223Z,14.00
2023-05-08T11:22:11.168Z,14.20
2023-05-08T11:24:39.525Z,14.37
2023-05-08T11:27:06.406Z,14.10
2023-05-08T11:29:34.296Z,14.33
2023-05-08T11:32:01.417Z,14.00
2023-05-08T11:34:43.781Z,14.90
2023-05-08T11:37:16.778Z,14.67
2023-05-08T11:39:43.711Z,14.17
2023-05-08T11:42:25.411Z,13.97
2023-05-08T11:45:03.666Z,13.73
2023-05-08T11:47:42.005Z,13.90
2023-05-08T11:50:10.724Z,13.70
2023-05-08T11:52:39.818Z,13.23
2023-05-08T11:55:09.013Z,13.60
2023-05-08T11:57:35.864Z,14.00
2023-05-08T12:00:06.530Z,13.70
2023-05-08T12:02:42.568Z,14.23
2023-05-08T12:05:11.010Z,14.00
2023-05-08T12:07:48.158Z,14.00
2023-05-08T12:10:16.690Z,13.80
2023-05-08T12:12:45.274Z,13.80
2023-05-08T12:15:15.237Z,13.30
2023-05-08T12:17:42.958Z,14.07
2023-05-08T12:20:18.025Z,13.77
2023-05-08T12:22:53.204Z,14.07
2023-05-08T12:25:20.769Z,14.50
2023-05-08T12:27:48.102Z,14.20
2023-05-08T12:30:16.247Z,13.70
2023-05-08T12:32:44.070Z,14.27
2023-05-08T12:35:12.520Z,13.77
2023-05-08T12:37:40.006Z,14.20
2023-05-08T12:40:08.088Z,14.20
2023-05-08T12:42:49.858Z,13.80
2023-05-08T12:45:46.828Z,13.87
2023-05-08T12:48:18.534Z,14.37
2023-05-08T12:50:46.428Z,14.60
2023-05-08T12:53:18.110Z,14.50
2023-05-08T12:55:53.148Z,14.10
2023-05-08T12:58:24.046Z,14.00
2023-05-08T13:00:52.392Z,14.17
2023-05-08T13:03:27.224Z,13.97
2023-05-08T13:05:56.112Z,13.87
2023-05-08T13:08:37.114Z,14.40
2023-05-08T13:11:07.848Z,13.97
2023-05-08T13:13:36.607Z,13.97
2023-05-08T13:16:05.774Z,13.90
2023-05-08T13:18:33.500Z,14.00
2023-05-08T13:21:02.254Z,14.03
2023-05-08T13:23:29.311Z,14.30
2023-05-08T13:25:56.662Z,14.30
2023-05-08T13:28:23.605Z,13.90
2023-05-08T13:30:50.440Z,13.97
2023-05-08T13:33:17.349Z,14.10
2023-05-08T13:35:44.149Z,14.20
2023-05-08T13:38:11.253Z,14.43
2023-05-08T13:40:38.051Z,14.40
2023-05-08T13:43:04.973Z,15.00
2023-05-08T13:45:33.036Z,14.57
2023-05-08T13:48:00.095Z,14.23
2023-05-08T13:50:26.958Z,14.20
2023-05-08T13:52:55.196Z,14.17
2023-05-08T13:55:23.307Z,14.27
2023-05-08T13:57:51.074Z,13.90
2023-05-08T14:00:18.611Z,13.83
2023-05-08T14:02:46.058Z,14.10
2023-05-08T14:05:13.673Z,13.90
2023-05-08T14:07:41.039Z,14.13
2023-05-08T14:10:08.284Z,14.47
2023-05-08T14:12:36.412Z,14.10
2023-05-08T14:15:05.113Z,14.00
2023-05-08T14:17:32.504Z,13.80
2023-05-08T14:19:59.802Z,13.03
2023-05-08T14:22:26.671Z,14.07
2023-05-08T14:24:53.543Z,13.17
2023-05-08T14:27:20.723Z,13.13
2023-05-08T14:29:47.770Z,13.13
2023-05-08T14:32:14.640Z,13.90
2023-05-08T14:34:41.562Z,13.30
2023-05-08T14:37:08.560Z,13.73
2023-05-08T14:39:35.504Z,13.07
2023-05-08T14:42:18.322Z,13.03
2023-05-08T14:44:49.648Z,13.47
2023-05-08T14:47:16.635Z,14.20
2023-05-08T14:49:43.544Z,13.77
2023-05-08T14:52:10.455Z,13.07
2023-05-08T14:54:37.582Z,13.50
2023-05-08T14:57:04.950Z,14.00
2023-05-08T14:59:31.789Z,14.00
2023-05-08T15:01:58.850Z,13.63
2023-05-08T15:04:25.800Z,13.37
2023-05-08T15:06:52.629Z,13.60
2023-05-08T15:09:19.591Z,13.10
2023-05-08T15:11:46.434Z,13.33
2023-05-08T15:14:13.281Z,13.87
2023-05-08T15:16:40.144Z,13.43
2023-05-08T15:19:09.370Z,13.87
2023-05-08T15:21:36.456Z,14.00
2023-05-08T15:24:03.428Z,13.83
2023-05-08T15:26:30.178Z,13.17
2023-05-08T15:28:57.193Z,13.77
2023-05-08T15:31:24.126Z,13.40
2023-05-08T15:33:52.643Z,13.10
2023-05-08T15:36:19.560Z,13.80
2023-05-08T15:38:49.129Z,13.10
2023-05-08T15:41:16.006Z,13.70
2023-05-08T15:43:45.324Z,13.80
2023-05-08T15:46:12.304Z,13.67
2023-05-08T15:48:39.517Z,13.53
2023-05-08T15:51:06.610Z,13.23
2023-05-08T15:53:34.361Z,13.63
2023-05-08T15:56:01.332Z,13.77
2023-05-08T15:58:28.446Z,13.83
2023-05-08T16:00:56.178Z,14.00
2023-05-08T16:03:23.609Z,14.00
2023-05-08T16:05:50.712Z,13.37
2023-05-08T16:08:17.512Z,14.07
2023-05-08T16:10:44.368Z,13.70
2023-05-08T16:13:11.490Z,13.30
2023-05-08T16:15:38.531Z,13.40
2023-05-08T16:18:06.277Z,13.00
2023-05-08T16:20:35.603Z,13.57
2023-05-08T16:23:02.984Z,13.93
2023-05-08T16:25:29.781Z,13.70
2023-05-08T16:27:56.867Z,13.80
2023-05-08T16:30:23.708Z,14.73
2023-05-08T16:32:50.826Z,13.57
2023-05-08T16:35:18.201Z,14.27
2023-05-08T16:37:45.502Z,14.00
2023-05-08T16:40:12.609Z,14.33
2023-05-08T16:42:39.516Z,14.33
2023-05-08T16:45:07.485Z,14.03
2023-05-08T16:47:34.746Z,14.07
2023-05-08T16:50:01.906Z,13.77
2023-05-08T16:52:29.014Z,14.43
2023-05-08T16:54:55.766Z,14.70
2023-05-08T16:57:22.735Z,14.77
2023-05-08T16:59:49.722Z,14.57
2023-05-08T17:02:19.551Z,14.27
2023-05-08T17:04:47.934Z,14.83
2023-05-08T17:07:15.878Z,14.27
2023-05-08T17:09:43.067Z,14.40
2023-05-08T17:12:10.300Z,14.17
2023-05-08T17:14:39.469Z,14.33
2023-05-08T17:17:06.963Z,14.23
2023-05-08T17:19:34.375Z,14.27
2023-05-08T17:22:01.395Z,14.43
2023-05-08T17:24:30.552Z,14.27
2023-05-08T17:26:57.505Z,13.70
2023-05-08T17:29:24.662Z,14.90
2023-05-08T17:31:51.677Z,13.90
2023-05-08T17:34:18.759Z,14.33
2023-05-08T17:36:45.653Z,14.57
2023-05-08T17:39:12.831Z,14.83
2023-05-08T17:41:39.754Z,14.60
2023-05-08T17:44:07.227Z,14.47
2023-05-08T17:46:34.261Z,15.10
2023-05-08T17:49:01.480Z,14.20
2023-05-08T17:51:28.249Z,15.30
2023-05-08T17:53:56.666Z,14.63
2023-05-08T17:56:23.936Z,14.30
2023-05-08T17:58:52.464Z,14.03
2023-05-08T18:01:20.319Z,14.53
2023-05-08T18:03:48.489Z,14.33
2023-05-08T18:06:18.769Z,14.17
2023-05-08T18:08:46.642Z,14.57
2023-05-08T18:11:21.574Z,14.50
2023-05-08T18:13:49.293Z,14.73
2023-05-08T18:16:18.323Z,14.67
2023-05-08T18:18:45.608Z,14.30
2023-05-08T18:21:12.536Z,14.27
2023-05-08T18:23:39.416Z,14.60
2023-05-08T18:26:06.535Z,14.43
2023-05-08T18:28:36.031Z,14.53
2023-05-08T18:31:03.269Z,14.60
2023-05-08T18:33:30.405Z,14.30
2023-05-08T18:35:57.332Z,14.50
2023-05-08T18:38:24.275Z,14.77
2023-05-08T18:40:51.237Z,14.17
2023-05-08T18:43:18.145Z,14.70
2023-05-08T18:45:45.013Z,14.20
2023-05-08T18:48:12.048Z,13.93
2023-05-08T18:50:38.925Z,14.53
2023-05-08T18:53:06.529Z,14.27
2023-05-08T18:55:33.448Z,14.10
2023-05-08T18:58:00.470Z,14.30
2023-05-08T19:00:27.457Z,14.37
2023-05-08T19:02:54.562Z,14.77
2023-05-08T19:05:21.514Z,14.53
2023-05-08T19:07:48.414Z,14.50
2023-05-08T19:10:15.845Z,14.70
2023-05-08T19:12:43.772Z,14.27
2023-05-08T19:15:13.932Z,14.80
2023-05-08T19:17:43.000Z,14.50
2023-05-08T19:20:10.444Z,14.60
2023-05-08T19:22:37.397Z,14.57
2023-05-08T19:25:04.607Z,14.67
2023-05-08T19:27:32.208Z,14.47
2023-05-08T19:29:59.232Z,14.50
2023-05-08T19:32:26.310Z,14.13
2023-05-08T19:34:53.642Z,14.40
2023-05-08T19:37:20.649Z,13.90
2023-05-08T19:39:47.462Z,14.67
2023-05-08T19:42:14.448Z,14.57
2023-05-08T19:44:41.400Z,14.70
2023-05-08T19:47:08.499Z,14.03
2023-05-08T19:49:35.307Z,14.57
2023-05-08T19:52:02.303Z,14.87
2023-05-08T19:54:30.401Z,14.43
2023-05-08T19:56:57.955Z,14.33
2023-05-08T19:59:24.744Z,14.47
2023-05-08T20:01:51.765Z,13.63
2023-05-08T20:04:18.529Z,14.00
2023-05-08T20:06:45.558Z,14.60
2023-05-08T20:09:12.524Z,14.50
2023-05-08T20:11:39.555Z,14.17
2023-05-08T20:14:06.369Z,14.33
2023-05-08T20:16:33.424Z,14.67
2023-05-08T20:19:02.119Z,14.70
2023-05-08T20:21:33.956Z,14.43
2023-05-08T20:24:01.203Z,14.60
2023-05-08T20:26:29.453Z,14.83
2023-05-08T20:28:57.369Z,13.97
2023-05-08T20:31:27.609Z,14.50
2023-05-08T20:33:55.366Z,14.50
2023-05-08T20:36:22.422Z,14.73
2023-05-08T20:38:49.231Z,15.50
2023-05-08T20:41:16.135Z,15.00
2023-05-08T20:43:43.737Z,14.73
2023-05-08T20:46:10.562Z,15.30
2023-05-08T20:48:38.641Z,14.70
2023-05-08T20:51:05.614Z,15.10
2023-05-08T20:53:32.866Z,15.63
2023-05-08T20:56:03.967Z,15.77
2023-05-08T20:58:31.384Z,15.20
2023-05-08T21:00:58.262Z,15.47
2023-05-08T21:03:25.371Z,14.93
2023-05-08T21:05:52.234Z,15.57
2023-05-08T21:08:23.665Z,15.77
2023-05-08T21:10:51.882Z,15.53
2023-05-08T21:13:19.231Z,15.70
2023-05-08T21:15:50.377Z,14.63
2023-05-08T21:18:18.127Z,14.60
2023-05-08T21:20:49.851Z,14.63
2023-05-08T21:23:18.001Z,16.20
2023-05-08T21:25:48.800Z,15.87
2023-05-08T21:28:16.703Z,15.73
2023-05-08T21:30:44.472Z,15.80
2023-05-08T21:33:14.120Z,15.80
2023-05-08T21:35:42.158Z,15.80
2023-05-08T21:38:11.842Z,15.73
2023-05-08T21:40:39.143Z,15.47
2023-05-08T21:43:06.063Z,15.77
2023-05-08T21:45:33.611Z,16.07
2023-05-08T21:48:00.788Z,15.67
2023-05-08T21:50:30.384Z,14.87
2023-05-08T21:52:57.241Z,15.70
2023-05-08T21:55:25.019Z,14.57
2023-05-08T21:57:52.074Z,15.33
2023-05-08T22:00:20.148Z,15.20
2023-05-08T22:02:47.389Z,15.17
2023-05-08T22:05:14.789Z,15.60
2023-05-08T22:07:41.961Z,15.53
2023-05-08T22:10:10.571Z,15.50
2023-05-08T22:12:37.671Z,15.17
2023-05-08T22:15:09.523Z,14.83
2023-05-08T22:17:45.357Z,14.80
2023-05-08T22:20:14.649Z,15.10
2023-05-08T22:22:41.865Z,14.87
2023-05-08T22:25:09.308Z,15.17
2023-05-08T22:27:36.461Z,15.30
2023-05-08T22:30:03.502Z,15.67
2023-05-08T22:32:30.675Z,15.20
2023-05-08T22:34:57.430Z,15.10
2023-05-08T22:37:26.190Z,14.80
2023-05-08T22:39:53.123Z,14.80
2023-05-08T22:42:20.036Z,15.10
2023-05-08T22:44:46.914Z,14.70
2023-05-08T22:47:14.330Z,15.00
2023-05-08T22:49:42.012Z,14.87
2023-05-08T22:52:09.390Z,14.87
2023-05-08T22:54:36.478Z,15.00
2023-05-08T22:57:03.380Z,14.93
2023-05-08T22:59:30.329Z,14.90
2023-05-08T23:01:57.277Z,15.53
2023-05-08T23:04:24.086Z,15.73
2023-05-08T23:06:51.414Z,15.70
2023-05-08T23:09:18.485Z,15.60
2023-05-08T23:11:45.763Z,15.60
2023-05-08T23:14:12.552Z,15.47
2023-05-08T23:16:39.626Z,15.80
2023-05-08T23:19:07.432Z,15.80
2023-05-08T23:21:34.466Z,15.97
2023-05-08T23:24:01.531Z,15.67
2023-05-08T23:26:28.771Z,15.70
2023-05-08T23:28:55.761Z,15.50
2023-05-08T23:31:22.697Z,15.87
2023-05-08T23:33:49.503Z,15.10
2023-05-08T23:36:16.857Z,16.07
2023-05-08T23:38:43.650Z,16.13
2023-05-08T23:41:11.469Z,15.67
2023-05-08T23:43:38.305Z,15.60
2023-05-08T23:46:06.549Z,15.03
2023-05-08T23:48:33.528Z,15.40
2023-05-08T23:51:00.432Z,14.87
2023-05-08T23:53:27.451Z,15.20
2023-05-08T23:55:54.352Z,14.93
2023-05-08T23:58:21.359Z,15.30
